Time;durP1;ratioP1;P1;durP2;ratioP2;P2;SDS_P1;SDS_P2;PMS_P1;PMS_P2;Temp;Humidity;BMP_temperature;BMP_pressure;BME280_temperature;BME280_humidity;BME280_pressure;Samples;Min_cycle;Max_cycle;Signal;HPM_P1;HPM_P2
2023/01/07 00:00:11;;;;;;;5.00;4.22;;;-1.50;65.00;;;;;;5014350;28;20022;-72
2023/01/07 00:02:36;;;;;;;6.32;4.55;;;-1.40;64.90;;;;;;5014318;28;20045;-70
2023/01/07 00:05:02;;;;;;;5.07;4.57;;;-1.40;64.80;;;;;;5014630;28;20034;-58
2023/01/07 00:07:27;;;;;;;5.75;4.40;;;-1.50;64.60;;;;;;5014417;28;20045;-60
2023/01/07 00:09:53;;;;;;;5.30;4.20;;;-1.40;64.80;;;;;;5007358;28;20101;-56
2023/01/07 00:12:19;;;;;;;4.80;3.90;;;-1.50;64.70;;;;;;5012685;28;20044;-55
2023/01/07 00:14:44;;;;;;;5.03;4.22;;;-1.50;64.60;;;;;;5000998;28;20061;-56
2023/01/07 00:17:10;;;;;;;5.18;4.30;;;-1.40;64.70;;;;;;5013454;28;20050;-55
2023/01/07 00:19:35;;;;;;;4.88;4.15;;;-1.40;64.60;;;;;;5005700;28;20040;-70
2023/01/07 00:22:01;;;;;;;6.15;4.32;;;-1.40;64.30;;;;;;5019531;28;20113;-70
2023/01/07 00:24:27;;;;;;;5.88;4.72;;;-1.50;64.30;;;;;;4996410;28;20077;-56
2023/01/07 00:26:52;;;;;;;6.03;4.32;;;-1.50;64.30;;;;;;5007094;28;20486;-55
2023/01/07 00:29:18;;;;;;;5.22;4.53;;;-1.50;64.40;;;;;;5011862;28;20046;-50
2023/01/07 00:31:43;;;;;;;5.60;4.53;;;-1.50;64.20;;;;;;4998374;28;20042;-54
2023/01/07 00:34:09;;;;;;;5.32;4.68;;;-1.50;64.40;;;;;;4999606;28;20417;-50
2023/01/07 00:36:44;;;;;;;4.72;4.03;;;-1.50;64.60;;;;;;4999555;28;20027;-53
2023/01/07 00:39:14;;;;;;;5.35;4.40;;;-1.50;64.60;;;;;;4994054;28;20030;-55
2023/01/07 00:42:52;;;;;;;5.47;4.20;;;-1.50;64.20;;;;;;5013109;28;20026;-57
2023/01/07 00:44:26;;;;;;;5.35;4.05;;;-1.50;64.30;;;;;;5000870;28;20031;-71
2023/01/07 00:46:51;;;;;;;5.88;4.30;;;-1.50;64.30;;;;;;5017738;28;20083;-73
2023/01/07 00:49:17;;;;;;;5.90;4.00;;;-1.50;64.20;;;;;;5003234;28;20030;-56
2023/01/07 00:51:42;;;;;;;4.50;4.05;;;-1.50;64.20;;;;;;5006608;28;20038;-54
2023/01/07 00:54:08;;;;;;;5.40;4.40;;;-1.50;64.60;;;;;;4993694;28;20034;-52
2023/01/07 00:56:34;;;;;;;5.88;4.38;;;-1.40;64.50;;;;;;5006604;28;20069;-50
2023/01/07 00:58:59;;;;;;;5.30;4.22;;;-1.40;64.00;;;;;;5001092;28;20057;-67
2023/01/07 01:01:25;;;;;;;4.53;3.95;;;-1.40;64.00;;;;;;5019450;28;20494;-71
2023/01/07 01:03:51;;;;;;;4.63;3.88;;;-1.40;64.00;;;;;;5010710;28;20054;-74
2023/01/07 01:06:17;;;;;;;4.78;3.75;;;-1.40;64.00;;;;;;5014094;28;20026;-60
2023/01/07 01:08:44;;;;;;;4.90;4.18;;;-1.40;63.90;;;;;;5012667;28;20033;-56
2023/01/07 01:11:12;;;;;;;4.80;4.10;;;-1.40;63.80;;;;;;5009108;28;20041;-57
2023/01/07 01:13:38;;;;;;;4.20;3.80;;;-1.40;63.70;;;;;;5003559;28;20543;-54
2023/01/07 01:16:10;;;;;;;5.68;3.90;;;-1.40;63.80;;;;;;4999567;28;20038;-73
2023/01/07 01:18:37;;;;;;;5.18;4.25;;;-1.40;63.80;;;;;;5009657;28;20117;-70
2023/01/07 01:21:08;;;;;;;5.60;4.03;;;-1.30;63.80;;;;;;5017912;28;20022;-61
2023/01/07 01:23:34;;;;;;;4.80;3.97;;;-1.30;63.70;;;;;;5000669;28;20038;-60
2023/01/07 01:26:09;;;;;;;4.10;3.63;;;-1.30;63.80;;;;;;5006085;28;20030;-65
2023/01/07 01:28:35;;;;;;;4.13;3.45;;;-1.30;63.70;;;;;;5004361;28;20022;-64
2023/01/07 01:31:01;;;;;;;6.28;4.05;;;-1.30;63.70;;;;;;5007823;28;20029;-51
2023/01/07 01:33:26;;;;;;;4.60;3.83;;;-1.30;63.90;;;;;;5012329;28;20034;-54
2023/01/07 01:35:52;;;;;;;4.47;3.50;;;-1.30;63.30;;;;;;5012217;28;20037;-59
2023/01/07 01:38:18;;;;;;;4.38;3.50;;;-1.30;63.30;;;;;;5011765;28;20158;-60
2023/01/07 01:40:43;;;;;;;4.20;3.80;;;-1.30;63.30;;;;;;5008769;28;20451;-54
2023/01/07 01:43:34;;;;;;;3.78;3.42;;;-1.30;62.80;;;;;;4992572;28;20374;-50
2023/01/07 01:46:22;;;;;;;4.13;3.72;;;-1.30;63.10;;;;;;5010303;28;20465;-52
2023/01/07 01:49:13;;;;;;;4.70;3.90;;;-1.30;63.10;;;;;;4999167;28;20117;-50
2023/01/07 01:51:41;;;;;;;4.78;3.80;;;-1.30;63.20;;;;;;5011630;28;20080;-56
2023/01/07 01:54:13;;;;;;;6.13;4.00;;;-1.30;62.90;;;;;;5011819;28;20471;-54
2023/01/07 01:56:43;;;;;;;4.35;3.90;;;-1.30;63.20;;;;;;5011766;28;20033;-70
2023/01/07 01:59:14;;;;;;;5.22;4.13;;;-1.30;63.30;;;;;;5008053;28;20034;-71
2023/01/07 02:01:40;;;;;;;4.35;3.95;;;-1.30;63.30;;;;;;4997898;28;20380;-56
2023/01/07 02:04:13;;;;;;;5.63;3.88;;;-1.30;63.20;;;;;;5010711;28;20040;-55
2023/01/07 02:06:46;;;;;;;4.45;3.47;;;-1.30;62.90;;;;;;4992574;28;20030;-64
2023/01/07 02:09:12;;;;;;;4.55;4.13;;;-1.30;63.00;;;;;;5004032;28;20062;-64
2023/01/07 02:11:54;;;;;;;6.03;4.13;;;-1.30;62.90;;;;;;5004006;28;20117;-58
2023/01/07 02:14:34;;;;;;;5.88;4.63;;;-1.30;63.00;;;;;;4995216;28;20034;-60
2023/01/07 02:17:09;;;;;;;5.13;4.10;;;-1.30;62.90;;;;;;5003878;28;20026;-53
2023/01/07 02:20:10;;;;;;;5.47;4.18;;;-1.30;62.70;;;;;;5003706;28;20506;-54
2023/01/07 02:22:49;;;;;;;5.40;4.45;;;-1.30;62.90;;;;;;5008506;28;20117;-54
2023/01/07 02:25:36;;;;;;;4.63;3.97;;;-1.40;63.00;;;;;;4996799;28;20054;-58
2023/01/07 02:28:07;;;;;;;4.88;4.28;;;-1.40;63.00;;;;;;4995709;28;20036;-59
2023/01/07 02:30:49;;;;;;;5.05;4.10;;;-1.40;63.50;;;;;;5007064;28;20042;-56
2023/01/07 02:33:23;;;;;;;;;;;-1.40;62.90;;;;;;5011679;28;20045;-56
2023/01/07 02:36:05;;;;;;;4.25;3.85;;;-1.50;62.10;;;;;;4998921;28;19906;-58
2023/01/07 02:38:51;;;;;;;5.65;4.28;;;-1.50;62.80;;;;;;4996569;28;20042;-60
2023/01/07 02:41:38;;;;;;;4.47;3.90;;;-1.50;62.90;;;;;;5003318;28;20037;-49
2023/01/07 02:44:13;;;;;;;5.13;4.03;;;-1.50;63.10;;;;;;4992341;28;20034;-50
2023/01/07 02:46:59;;;;;;;5.80;4.28;;;-1.40;63.00;;;;;;5007191;28;20105;-58
2023/01/07 02:49:24;;;;;;;5.68;3.92;;;-1.40;63.10;;;;;;5011139;28;20036;-56
2023/01/07 02:51:50;;;;;;;4.20;3.78;;;-1.30;62.80;;;;;;4992517;28;20121;-59
2023/01/07 02:54:22;;;;;;;4.43;3.80;;;-1.30;63.00;;;;;;5003488;28;20084;-59
2023/01/07 02:57:14;;;;;;;4.78;3.85;;;-1.30;62.80;;;;;;5006064;28;20030;-71
2023/01/07 03:00:21;;;;;;;5.55;4.07;;;-1.30;62.70;;;;;;4997425;28;20042;-71
2023/01/07 03:03:08;;;;;;;5.35;3.78;;;-1.30;62.60;;;;;;5002595;28;20046;-54
2023/01/07 03:06:12;;;;;;;5.00;3.83;;;-1.20;62.50;;;;;;5007319;28;20038;-70
2023/01/07 03:09:04;;;;;;;4.53;3.85;;;-1.20;62.00;;;;;;5002417;28;20052;-69
2023/01/07 03:11:56;;;;;;;4.22;3.80;;;-1.20;62.00;;;;;;5017415;28;20026;-53
2023/01/07 03:14:41;;;;;;;4.53;3.55;;;-1.30;61.90;;;;;;5009170;28;20040;-50
2023/01/07 03:17:11;;;;;;;6.35;4.25;;;-1.30;62.10;;;;;;4993018;28;20065;-50
2023/01/07 03:19:40;;;;;;;5.03;3.97;;;-1.30;62.30;;;;;;4991896;28;20029;-51
2023/01/07 03:22:09;;;;;;;4.40;3.80;;;-1.30;62.50;;;;;;4998684;28;20034;-70
2023/01/07 03:24:35;;;;;;;5.13;4.05;;;-1.30;62.20;;;;;;5009710;28;20100;-71
2023/01/07 03:27:04;;;;;;;5.80;4.30;;;-1.20;62.20;;;;;;5002305;28;20281;-55
2023/01/07 03:29:34;;;;;;;4.38;3.60;;;-1.20;62.00;;;;;;5011813;28;20057;-54
2023/01/07 03:32:45;;;;;;;4.00;3.60;;;-1.20;62.00;;;;;;5013112;28;20030;-52
2023/01/07 03:35:11;;;;;;;5.28;4.00;;;-1.20;61.80;;;;;;4990443;28;20554;-56
2023/01/07 03:37:40;;;;;;;5.10;3.88;;;-1.20;61.90;;;;;;5002884;28;20038;-55
2023/01/07 03:40:09;;;;;;;6.53;4.53;;;-1.20;61.70;;;;;;4995116;28;20385;-54
2023/01/07 03:42:40;;;;;;;5.38;4.13;;;-1.20;61.80;;;;;;5003893;28;20058;-55
2023/01/07 03:45:18;;;;;;;5.10;3.97;;;-1.20;61.80;;;;;;5013691;28;20488;-55
2023/01/07 03:47:50;;;;;;;3.78;3.42;;;-1.10;61.90;;;;;;5013674;28;20053;-53
2023/01/07 03:50:16;;;;;;;5.22;4.30;;;-1.20;61.90;;;;;;5001744;28;20057;-55
2023/01/07 03:52:42;;;;;;;5.15;4.30;;;-1.20;62.20;;;;;;5013685;28;20030;-54
2023/01/07 03:55:09;;;;;;;4.57;3.88;;;-1.10;62.20;;;;;;5010375;28;20048;-54
2023/01/07 03:57:34;;;;;;;4.63;3.70;;;-1.10;62.10;;;;;;5000751;28;20034;-54
2023/01/07 04:00:00;;;;;;;4.75;4.00;;;-1.10;61.70;;;;;;5013020;28;20021;-55
2023/01/07 04:02:26;;;;;;;4.50;3.97;;;-1.10;61.50;;;;;;5010717;28;20032;-53
2023/01/07 04:04:52;;;;;;;3.92;3.45;;;-1.10;61.20;;;;;;5013547;28;20045;-54
2023/01/07 04:07:18;;;;;;;3.92;3.53;;;-1.10;61.30;;;;;;5014728;28;20383;-55
2023/01/07 04:09:46;;;;;;;4.10;3.63;;;-1.10;61.30;;;;;;5002225;28;20026;-55
2023/01/07 04:12:12;;;;;;;4.88;3.83;;;-1.10;61.00;;;;;;5001976;28;20041;-53
2023/01/07 04:14:38;;;;;;;4.07;3.63;;;-1.10;61.00;;;;;;5007029;28;20060;-52
2023/01/07 04:17:04;;;;;;;4.53;3.50;;;-1.20;60.70;;;;;;5006806;28;20468;-54
2023/01/07 04:19:29;;;;;;;3.85;3.30;;;-1.20;60.90;;;;;;5013753;28;20105;-52
2023/01/07 04:21:55;;;;;;;5.47;3.67;;;-1.30;60.90;;;;;;5012868;28;20053;-65
2023/01/07 04:24:21;;;;;;;3.63;3.33;;;-1.30;61.30;;;;;;5013024;28;20481;-65
2023/01/07 04:26:46;;;;;;;4.63;3.53;;;-1.30;61.10;;;;;;5001792;28;20058;-55
2023/01/07 04:29:12;;;;;;;3.90;3.40;;;-1.30;61.30;;;;;;5012252;28;20064;-55
2023/01/07 04:31:38;;;;;;;3.58;3.28;;;-1.20;61.20;;;;;;5001462;28;20117;-53
2023/01/07 04:34:03;;;;;;;4.82;3.85;;;-1.20;61.50;;;;;;4999187;28;20551;-50
2023/01/07 04:36:29;;;;;;;4.00;3.40;;;-1.20;61.00;;;;;;5020677;28;20026;-71
2023/01/07 04:38:54;;;;;;;3.80;3.50;;;-1.20;61.70;;;;;;5024966;28;20339;-71
2023/01/07 04:41:20;;;;;;;3.83;3.35;;;-1.20;60.90;;;;;;5019799;28;20483;-57
2023/01/07 04:43:46;;;;;;;3.63;3.20;;;-1.20;60.90;;;;;;4999119;28;20033;-58
2023/01/07 04:46:12;;;;;;;5.20;4.30;;;-1.20;60.80;;;;;;5013195;28;20026;-52
2023/01/07 04:48:37;;;;;;;5.13;3.78;;;-1.20;60.80;;;;;;5007599;28;20027;-52
2023/01/07 04:51:03;;;;;;;5.45;3.80;;;-1.20;60.80;;;;;;5002323;28;20469;-65
2023/01/07 04:53:29;;;;;;;4.30;3.45;;;-1.20;60.70;;;;;;5000374;28;20044;-66
2023/01/07 04:55:55;;;;;;;4.05;3.60;;;-1.20;60.50;;;;;;5011635;28;20030;-53
2023/01/07 04:58:20;;;;;;;4.45;4.05;;;-1.20;60.60;;;;;;5012912;28;20109;-53
2023/01/07 05:00:46;;;;;;;3.65;3.35;;;-1.20;60.60;;;;;;5012272;28;20519;-50
2023/01/07 05:03:12;;;;;;;3.83;3.42;;;-1.20;60.70;;;;;;5014279;28;20064;-53
2023/01/07 05:05:37;;;;;;;4.35;3.63;;;-1.20;60.60;;;;;;5020660;28;20030;-64
2023/01/07 05:08:03;;;;;;;3.80;3.42;;;-1.10;60.70;;;;;;5012208;28;20080;-66
2023/01/07 05:10:29;;;;;;;4.82;4.00;;;-1.10;60.50;;;;;;4996418;28;20043;-49
2023/01/07 05:12:55;;;;;;;4.85;3.65;;;-1.00;60.50;;;;;;4997586;28;20420;-51
2023/01/07 05:15:20;;;;;;;4.03;3.53;;;-0.90;60.30;;;;;;4996132;28;20030;-58
2023/01/07 05:17:46;;;;;;;5.60;3.83;;;-0.90;60.00;;;;;;5009405;28;20029;-58
2023/01/07 05:20:12;;;;;;;5.00;3.83;;;-0.80;59.80;;;;;;5012826;28;20025;-58
2023/01/07 05:22:38;;;;;;;4.75;3.78;;;-0.80;59.80;;;;;;5007058;28;20109;-58
2023/01/07 05:25:04;;;;;;;4.00;3.60;;;-0.80;59.90;;;;;;5010886;28;20227;-58
2023/01/07 05:27:29;;;;;;;4.07;3.50;;;-0.80;59.90;;;;;;5012389;28;20026;-57
2023/01/07 05:29:55;;;;;;;5.10;3.75;;;-0.80;59.70;;;;;;5012138;28;20046;-57
2023/01/07 05:32:21;;;;;;;5.03;4.13;;;-0.90;59.80;;;;;;5008445;28;20038;-63
2023/01/07 05:34:46;;;;;;;5.00;3.72;;;-0.90;60.00;;;;;;5004580;28;20040;-64
2023/01/07 05:37:12;;;;;;;5.22;4.07;;;-0.90;60.20;;;;;;5009805;28;20029;-59
2023/01/07 05:39:38;;;;;;;4.60;3.97;;;-0.80;60.40;;;;;;5001803;28;20037;-59
2023/01/07 05:42:03;;;;;;;4.60;4.10;;;-0.70;60.20;;;;;;5007631;28;20026;-54
2023/01/07 05:44:29;;;;;;;5.18;4.00;;;-0.70;60.00;;;;;;5011998;28;20029;-52
2023/01/07 05:46:55;;;;;;;4.50;3.70;;;-0.60;59.80;;;;;;5010194;28;20161;-72
2023/01/07 05:49:20;;;;;;;4.50;4.10;;;-0.60;59.40;;;;;;5012249;28;20460;-70
2023/01/07 05:51:46;;;;;;;6.47;3.88;;;-0.70;59.40;;;;;;5011454;28;20376;-52
2023/01/07 05:54:12;;;;;;;4.18;3.78;;;-0.70;59.80;;;;;;5001877;28;20161;-55
2023/01/07 05:56:37;;;;;;;5.00;3.60;;;-0.80;59.80;;;;;;5009281;28;20041;-69
2023/01/07 05:59:03;;;;;;;4.75;3.90;;;-0.80;60.00;;;;;;5010235;28;20061;-72
2023/01/07 06:01:29;;;;;;;3.55;3.25;;;-0.80;59.80;;;;;;5010514;28;20050;-54
2023/01/07 06:03:54;;;;;;;5.15;4.22;;;-0.80;60.00;;;;;;5001063;28;20391;-55
2023/01/07 06:06:20;;;;;;;5.22;3.83;;;-0.90;59.90;;;;;;5003720;28;20030;-66
2023/01/07 06:08:45;;;;;;;6.18;4.18;;;-0.90;60.00;;;;;;5004068;28;20030;-65
2023/01/07 06:11:11;;;;;;;6.40;4.05;;;-0.90;60.00;;;;;;5005246;28;20061;-66
2023/01/07 06:13:37;;;;;;;4.80;3.95;;;-0.90;60.10;;;;;;5011947;28;20360;-66
2023/01/07 06:16:05;;;;;;;4.10;3.60;;;-0.90;59.80;;;;;;5007365;28;20031;-50
2023/01/07 06:18:31;;;;;;;5.22;3.90;;;-0.90;59.70;;;;;;5001632;28;20121;-51
2023/01/07 06:20:56;;;;;;;5.07;4.18;;;-0.90;59.60;;;;;;5010706;28;20113;-51
2023/01/07 06:23:22;;;;;;;4.97;3.83;;;-0.90;59.40;;;;;;5001382;28;20096;-52
2023/01/07 06:25:48;;;;;;;5.03;3.92;;;-1.00;59.30;;;;;;4995145;28;20029;-51
2023/01/07 06:28:14;;;;;;;4.43;3.67;;;-1.00;59.60;;;;;;5011273;28;20546;-51
2023/01/07 06:30:39;;;;;;;4.85;3.97;;;-1.00;59.70;;;;;;5011081;28;20045;-53
2023/01/07 06:33:05;;;;;;;4.38;3.90;;;-1.00;59.80;;;;;;5010850;28;20476;-55
2023/01/07 06:35:31;;;;;;;4.80;3.75;;;-1.00;59.80;;;;;;5011032;28;20033;-55
2023/01/07 06:37:57;;;;;;;5.43;4.07;;;-0.90;59.70;;;;;;5011294;28;20060;-55
2023/01/07 06:40:23;;;;;;;5.22;3.90;;;-0.70;59.60;;;;;;4998200;28;20504;-65
2023/01/07 06:42:48;;;;;;;4.30;3.90;;;-0.70;59.40;;;;;;5010546;28;20026;-65
2023/01/07 06:45:14;;;;;;;4.68;4.05;;;-0.60;59.40;;;;;;5007733;28;20370;-54
2023/01/07 06:47:40;;;;;;;4.38;3.50;;;-0.50;59.10;;;;;;5001945;28;20029;-52
2023/01/07 06:50:06;;;;;;;4.55;3.80;;;-0.40;58.90;;;;;;5010013;28;20030;-54
2023/01/07 06:52:32;;;;;;;5.90;4.22;;;-0.30;58.70;;;;;;4992649;28;20376;-51
2023/01/07 06:54:58;;;;;;;4.78;3.97;;;-0.30;58.60;;;;;;5008607;28;20030;-52
2023/01/07 06:57:23;;;;;;;6.38;4.30;;;-0.30;58.40;;;;;;5001833;28;20484;-52
2023/01/07 06:59:49;;;;;;;5.40;3.70;;;-0.40;58.60;;;;;;4998175;28;20037;-53
2023/01/07 07:02:26;;;;;;;4.20;3.55;;;-0.50;58.80;;;;;;5008685;28;20026;-50
2023/01/07 07:04:52;;;;;;;4.30;3.67;;;-0.50;58.90;;;;;;5009198;28;20069;-54
2023/01/07 07:07:18;;;;;;;5.30;3.75;;;-0.50;59.10;;;;;;5006702;28;20077;-54
2023/01/07 07:09:44;;;;;;;4.07;3.67;;;-0.50;58.90;;;;;;5013921;28;20030;-56
2023/01/07 07:12:11;;;;;;;4.25;3.60;;;-0.50;58.80;;;;;;5014695;28;20058;-50
2023/01/07 07:14:37;;;;;;;4.20;3.60;;;-0.50;58.90;;;;;;5009131;28;20113;-54
2023/01/07 07:17:03;;;;;;;4.20;3.55;;;-0.60;58.80;;;;;;5006076;28;20050;-54
2023/01/07 07:19:29;;;;;;;4.60;3.78;;;-0.60;59.00;;;;;;5014231;28;20022;-55
2023/01/07 07:21:55;;;;;;;4.47;3.88;;;-0.70;59.10;;;;;;5013497;28;20034;-54
2023/01/07 07:24:20;;;;;;;4.88;4.07;;;-0.70;59.40;;;;;;5008300;28;20043;-56
2023/01/07 07:26:46;;;;;;;6.38;4.40;;;-0.70;59.50;;;;;;4994940;28;20480;-58
2023/01/07 07:29:12;;;;;;;5.40;4.45;;;-0.70;59.50;;;;;;5011739;28;20129;-58
2023/01/07 07:31:37;;;;;;;4.95;4.00;;;-0.70;59.50;;;;;;5005290;28;20038;-57
2023/01/07 07:34:03;;;;;;;4.57;3.65;;;-0.60;59.50;;;;;;5013542;28;20387;-57
2023/01/07 07:36:29;;;;;;;5.90;4.22;;;-0.50;59.50;;;;;;5013978;28;20049;-54
2023/01/07 07:38:55;;;;;;;5.20;4.18;;;-0.40;59.40;;;;;;5013351;28;20472;-50
2023/01/07 07:41:21;;;;;;;4.45;3.88;;;-0.40;59.20;;;;;;5002547;28;20026;-54
2023/01/07 07:43:46;;;;;;;4.40;3.88;;;-0.30;59.20;;;;;;5012339;28;20081;-54
2023/01/07 07:46:13;;;;;;;5.43;4.00;;;-0.20;58.90;;;;;;5012306;28;20049;-50
2023/01/07 07:48:38;;;;;;;6.25;4.03;;;-0.20;59.00;;;;;;5012177;28;20042;-52
2023/01/07 07:51:04;;;;;;;4.78;3.80;;;-0.20;58.90;;;;;;5012456;28;20547;-52
2023/01/07 07:53:30;;;;;;;4.85;4.00;;;-0.10;58.80;;;;;;5007418;28;20077;-52
2023/01/07 07:55:55;;;;;;;5.25;3.95;;;0.00;58.60;;;;;;5004919;28;20157;-65
2023/01/07 07:58:21;;;;;;;5.43;4.30;;;0.00;58.40;;;;;;4999905;28;20030;-65
2023/01/07 08:00:47;;;;;;;5.80;4.20;;;0.10;58.70;;;;;;5011185;28;20041;-67
2023/01/07 08:03:13;;;;;;;5.15;3.85;;;0.10;58.70;;;;;;5006952;28;20027;-67
2023/01/07 08:05:43;;;;;;;5.05;4.55;;;0.10;58.70;;;;;;5006039;28;20026;-54
2023/01/07 08:08:11;;;;;;;6.60;5.13;;;0.10;58.60;;;;;;5012951;28;20122;-54
2023/01/07 08:10:37;;;;;;;7.13;4.80;;;0.10;58.80;;;;;;5001051;28;20030;-50
2023/01/07 08:13:03;;;;;;;6.32;4.47;;;0.10;58.70;;;;;;5011442;28;20232;-54
2023/01/07 08:15:29;;;;;;;5.38;4.20;;;0.00;58.60;;;;;;5012419;28;20030;-64
2023/01/07 08:18:07;;;;;;;6.72;5.10;;;0.00;58.60;;;;;;5009940;28;20435;-63
2023/01/07 08:20:34;;;;;;;6.93;4.95;;;-0.10;58.60;;;;;;5010430;28;20079;-61
2023/01/07 08:23:01;;;;;;;6.63;4.88;;;-0.10;58.60;;;;;;5004073;28;20435;-64
2023/01/07 08:25:29;;;;;;;7.53;4.97;;;-0.20;58.70;;;;;;5005473;28;20041;-68
2023/01/07 08:27:55;;;;;;;6.35;4.50;;;-0.20;58.60;;;;;;5002768;28;20042;-66
2023/01/07 08:30:21;;;;;;;6.03;4.45;;;-0.40;58.60;;;;;;4992628;28;20073;-70
2023/01/07 08:32:47;;;;;;;4.90;4.15;;;-0.40;58.70;;;;;;4999295;28;20037;-68
2023/01/07 08:35:14;;;;;;;5.95;4.68;;;-0.50;59.00;;;;;;5011120;28;20037;-53
2023/01/07 08:37:40;;;;;;;5.47;4.75;;;-0.50;59.10;;;;;;5010777;28;20383;-54
2023/01/07 08:40:07;;;;;;;6.22;4.28;;;-0.60;59.00;;;;;;5010386;28;20026;-54
2023/01/07 08:42:32;;;;;;;5.78;4.75;;;-0.70;59.00;;;;;;4999337;28;20412;-55
2023/01/07 08:44:58;;;;;;;6.00;4.90;;;-0.80;59.30;;;;;;4999859;28;20041;-53
2023/01/07 08:47:26;;;;;;;6.60;4.53;;;-0.80;59.40;;;;;;5012198;28;20100;-63
2023/01/07 08:49:53;;;;;;;5.88;4.50;;;-0.70;59.50;;;;;;4999596;28;20053;-64
2023/01/07 08:52:20;;;;;;;5.28;4.35;;;-0.70;59.50;;;;;;5006134;28;20365;-64
2023/01/07 08:54:46;;;;;;;4.95;4.13;;;-0.60;59.10;;;;;;5005684;28;20037;-63
2023/01/07 08:57:12;;;;;;;5.00;4.28;;;-0.60;58.90;;;;;;5001710;28;20025;-53
2023/01/07 08:59:39;;;;;;;6.85;4.93;;;-0.60;58.50;;;;;;5009639;28;20029;-55
2023/01/07 09:02:09;;;;;;;5.10;4.53;;;-0.70;58.80;;;;;;5008938;28;20080;-49
2023/01/07 09:04:35;;;;;;;5.82;4.57;;;-0.70;58.70;;;;;;5009810;28;20038;-49
2023/01/07 09:07:00;;;;;;;5.88;4.60;;;-0.70;58.30;;;;;;5011549;28;20048;-56
2023/01/07 09:09:26;;;;;;;5.18;4.50;;;-0.70;58.40;;;;;;4998719;28;20061;-54
2023/01/07 09:11:51;;;;;;;6.75;5.05;;;-0.80;58.70;;;;;;5010663;28;20030;-54
2023/01/07 09:14:17;;;;;;;6.20;5.13;;;-0.80;58.80;;;;;;5010705;28;20133;-51
2023/01/07 09:16:43;;;;;;;6.03;4.88;;;-0.80;58.80;;;;;;5002670;28;20025;-68
2023/01/07 09:19:08;;;;;;;4.60;4.20;;;-0.80;58.60;;;;;;4995046;28;20025;-71
2023/01/07 09:21:34;;;;;;;5.25;4.72;;;-0.70;58.40;;;;;;5011602;28;20034;-49
2023/01/07 09:24:00;;;;;;;4.80;4.28;;;-0.70;58.40;;;;;;4998163;28;20042;-53
2023/01/07 09:26:25;;;;;;;4.80;4.07;;;-0.70;58.20;;;;;;5002838;28;20100;-71
2023/01/07 09:28:51;;;;;;;5.55;4.28;;;-0.70;58.10;;;;;;5006262;28;20041;-71
2023/01/07 09:31:18;;;;;;;5.13;4.45;;;-0.60;58.40;;;;;;5003249;28;20477;-54
2023/01/07 09:33:44;;;;;;;5.47;4.50;;;-0.60;58.30;;;;;;5005062;28;20034;-56
2023/01/07 09:36:09;;;;;;;6.80;4.40;;;-0.60;57.90;;;;;;4992617;28;20037;-65
2023/01/07 09:38:35;;;;;;;5.55;4.63;;;-0.50;58.20;;;;;;4994775;28;20058;-65
2023/01/07 09:41:01;;;;;;;6.35;4.20;;;-0.40;58.80;;;;;;5005515;28;20037;-50
2023/01/07 09:43:35;;;;;;;5.57;4.30;;;-0.40;58.00;;;;;;5005155;28;20034;-53
2023/01/07 09:46:04;;;;;;;6.18;4.10;;;-0.30;57.90;;;;;;5003922;28;20030;-53
2023/01/07 09:48:39;;;;;;;4.40;3.92;;;-0.20;57.50;;;;;;5009554;28;20049;-50
2023/01/07 09:51:26;;;;;;;6.97;4.88;;;-0.10;57.00;;;;;;5011025;28;20044;-70
2023/01/07 09:53:58;;;;;;;5.20;4.22;;;-0.20;57.30;;;;;;5000466;28;20046;-71
2023/01/07 09:56:27;;;;;;;5.85;4.60;;;-0.20;57.60;;;;;;5001451;28;20498;-52
2023/01/07 09:58:55;;;;;;;5.60;4.30;;;-0.20;57.60;;;;;;4995717;28;20038;-53
2023/01/07 10:01:26;;;;;;;5.85;4.60;;;-0.10;57.50;;;;;;5008547;28;20038;-58
2023/01/07 10:04:21;;;;;;;5.30;4.18;;;-0.10;57.10;;;;;;5001222;28;20042;-58
2023/01/07 10:06:57;;;;;;;5.32;3.95;;;-0.20;57.00;;;;;;4998109;28;20431;-54
2023/01/07 10:09:26;;;;;;;5.18;4.20;;;-0.20;57.10;;;;;;5007830;28;20057;-55
2023/01/07 10:12:12;;;;;;;5.43;4.15;;;-0.30;57.00;;;;;;5009458;28;20033;-58
2023/01/07 10:14:41;;;;;;;4.78;4.28;;;-0.30;57.20;;;;;;5004321;28;20077;-58
2023/01/07 10:17:27;;;;;;;5.65;4.55;;;-0.30;57.30;;;;;;5001513;28;20042;-62
2023/01/07 10:20:01;;;;;;;5.30;4.28;;;-0.30;57.20;;;;;;4999347;28;20456;-64
2023/01/07 10:22:59;;;;;;;5.55;4.38;;;-0.20;57.10;;;;;;5005582;28;20022;-56
2023/01/07 10:25:51;;;;;;;5.55;4.15;;;-0.10;57.00;;;;;;4996616;28;20038;-52
2023/01/07 10:28:43;;;;;;;5.70;4.30;;;0.00;56.80;;;;;;5007463;28;20042;-53
2023/01/07 10:31:19;;;;;;;5.72;4.28;;;0.00;56.80;;;;;;4998809;28;20042;-54
2023/01/07 10:33:47;;;;;;;4.70;3.88;;;0.10;56.40;;;;;;5005250;28;20038;-52
2023/01/07 10:36:21;;;;;;;4.65;4.03;;;0.10;56.40;;;;;;5012245;28;20057;-51
2023/01/07 10:38:57;;;;;;;5.53;4.28;;;0.10;56.70;;;;;;5014390;28;20038;-52
2023/01/07 10:41:48;;;;;;;4.82;4.25;;;0.00;56.40;;;;;;5015160;28;20041;-58
2023/01/07 10:44:19;;;;;;;4.97;4.15;;;0.00;56.50;;;;;;5014940;28;20128;-59
2023/01/07 10:47:17;;;;;;;5.45;4.47;;;0.00;56.70;;;;;;5002482;28;20583;-59
2023/01/07 10:50:06;;;;;;;4.97;3.78;;;0.10;56.60;;;;;;4995441;28;20454;-59
2023/01/07 10:52:50;;;;;;;5.32;4.05;;;0.10;56.60;;;;;;4995403;28;20028;-56
2023/01/07 10:55:18;;;;;;;4.43;4.00;;;0.20;56.60;;;;;;5001533;28;20427;-52
2023/01/07 10:57:46;;;;;;;5.72;4.45;;;0.30;56.50;;;;;;5019371;28;20037;-52
2023/01/07 11:00:14;;;;;;;4.97;3.90;;;0.30;56.30;;;;;;5008065;28;20444;-52
2023/01/07 11:02:49;;;;;;;6.53;4.40;;;0.30;56.20;;;;;;5007653;28;20057;-51
2023/01/07 11:05:19;;;;;;;6.07;4.13;;;0.40;56.30;;;;;;5003344;28;20037;-70
2023/01/07 11:07:55;;;;;;;4.43;3.97;;;0.40;56.00;;;;;;5015321;28;20030;-71
2023/01/07 11:10:24;;;;;;;5.22;4.15;;;0.40;56.00;;;;;;5015323;28;20026;-54
2023/01/07 11:12:50;;;;;;;4.70;4.05;;;0.40;55.90;;;;;;5001158;28;20026;-52
2023/01/07 11:15:26;;;;;;;6.53;4.07;;;0.40;55.90;;;;;;5014619;28;20033;-69
2023/01/07 11:18:03;;;;;;;6.10;4.38;;;0.40;55.80;;;;;;5004892;28;20028;-70
2023/01/07 11:20:47;;;;;;;4.97;4.07;;;0.40;55.80;;;;;;5015521;28;20062;-55
2023/01/07 11:23:32;;;;;;;6.68;4.57;;;0.40;55.80;;;;;;5014121;28;20061;-53
2023/01/07 11:26:09;;;;;;;4.95;4.13;;;0.40;55.50;;;;;;5014234;28;20073;-51
2023/01/07 11:28:36;;;;;;;5.28;4.22;;;0.30;55.60;;;;;;5013152;28;20091;-51
2023/01/07 11:31:02;;;;;;;6.95;4.30;;;0.30;55.80;;;;;;5014194;28;20538;-64
2023/01/07 11:33:52;;;;;;;6.15;4.45;;;0.30;55.90;;;;;;5000781;28;20113;-64
2023/01/07 11:36:18;;;;;;;6.63;4.97;;;0.30;56.00;;;;;;5004108;28;20026;-59
2023/01/07 11:38:44;;;;;;;4.70;4.18;;;0.30;56.00;;;;;;4999311;28;20068;-57
2023/01/07 11:41:24;;;;;;;6.03;4.72;;;0.30;56.00;;;;;;5014562;28;20026;-58
2023/01/07 11:43:53;;;;;;;4.85;4.00;;;0.40;55.90;;;;;;5000737;28;20064;-59
2023/01/07 11:46:20;;;;;;;5.78;4.40;;;0.30;55.80;;;;;;5014673;28;20159;-53
2023/01/07 11:48:59;;;;;;;4.55;4.10;;;0.30;56.00;;;;;;5000668;28;20116;-59
2023/01/07 11:51:26;;;;;;;4.78;4.13;;;0.30;56.10;;;;;;4999394;28;20026;-51
2023/01/07 11:53:51;;;;;;;5.95;4.53;;;0.30;56.20;;;;;;4994458;28;20034;-52
2023/01/07 11:56:20;;;;;;;8.27;4.50;;;0.30;56.00;;;;;;5006050;28;20046;-57
2023/01/07 11:58:49;;;;;;;5.47;3.95;;;0.30;55.80;;;;;;5002883;28;20022;-58
2023/01/07 12:01:19;;;;;;;5.80;4.57;;;0.40;55.80;;;;;;5014293;28;20030;-71
2023/01/07 12:03:51;;;;;;;4.38;3.90;;;0.40;55.90;;;;;;5003501;28;20081;-70
2023/01/07 12:06:21;;;;;;;5.35;4.15;;;0.40;55.90;;;;;;5008589;28;20031;-71
2023/01/07 12:08:55;;;;;;;6.35;4.53;;;0.40;55.90;;;;;;5012652;28;20123;-69
2023/01/07 12:11:21;;;;;;;5.07;4.13;;;0.40;55.90;;;;;;5009436;28;20034;-58
2023/01/07 12:13:54;;;;;;;5.60;4.15;;;0.40;55.90;;;;;;4993976;28;20053;-56
2023/01/07 12:16:27;;;;;;;6.70;5.13;;;0.40;55.80;;;;;;5000636;28;20079;-55
2023/01/07 12:19:01;;;;;;;7.40;4.82;;;0.40;55.50;;;;;;5012920;28;20021;-54
2023/01/07 12:22:07;;;;;;;5.00;4.32;;;0.30;55.40;;;;;;5002753;28;20072;-50
2023/01/07 12:24:44;;;;;;;5.80;4.68;;;0.10;55.40;;;;;;5000475;28;20117;-51
2023/01/07 12:27:35;;;;;;;6.82;5.00;;;0.00;55.70;;;;;;5000126;28;20488;-55
2023/01/07 12:30:12;;;;;;;6.57;5.00;;;-0.10;55.70;;;;;;5004461;28;20046;-54
2023/01/07 12:32:53;;;;;;;5.57;4.65;;;-0.10;56.10;;;;;;4993915;28;20563;-53
2023/01/07 12:35:30;;;;;;;5.82;4.43;;;-0.10;56.30;;;;;;5009998;28;20065;-65
2023/01/07 12:38:09;;;;;;;5.70;4.45;;;-0.10;56.50;;;;;;5002108;28;20137;-65
2023/01/07 12:40:40;;;;;;;7.20;4.88;;;-0.10;56.40;;;;;;4998896;28;20026;-57
2023/01/07 12:43:15;;;;;;;7.55;5.63;;;0.00;56.50;;;;;;5012430;28;20038;-58
2023/01/07 12:45:53;;;;;;;8.10;6.57;;;-0.10;56.50;;;;;;5012352;28;20049;-59
2023/01/07 12:48:58;;;;;;;7.85;6.47;;;-0.20;56.90;;;;;;5012183;28;20037;-60
2023/01/07 12:51:30;;;;;;;8.65;6.50;;;-0.20;57.40;;;;;;5002946;28;20038;-51
2023/01/07 12:54:15;;;;;;;8.20;6.32;;;-0.30;57.60;;;;;;5002283;28;20030;-52
2023/01/07 12:57:00;;;;;;;7.70;6.28;;;-0.40;57.90;;;;;;4998257;28;20026;-53
2023/01/07 12:59:39;;;;;;;7.80;6.00;;;-0.40;58.10;;;;;;5006077;28;20370;-51
2023/01/07 13:02:20;;;;;;;8.10;6.45;;;-0.40;58.30;;;;;;5012540;28;20045;-65
2023/01/07 13:04:48;;;;;;;8.90;6.95;;;-0.50;58.50;;;;;;5011499;28;20112;-65